Terminal Aerodrome Forecast
Issued by NWS Raleigh/Durham, NC

Home | Current Version | Previous Version | Text Only | Print | Product List | Glossary On
Versions: 1 2 3 4 5 6 7 8 9 10 11 12 13 14 15
000
FTUS42 KRAH 250539
TAFFAY
TAF
KFAY 250539Z 2506/2606 18006KT P6SM SKC
     FM250800 19004KT 3SM BR SCT004
      TEMPO 2509/2513 2SM BR BKN004
     FM251300 21011G18KT P6SM FEW012 SCT050
     FM251800 22019G27KT 3SM -SHRA BR FEW030 BKN040
     FM252100 25017G26KT P6SM BKN050
     FM260000 29012G19KT P6SM FEW060=

USA.gov is the U.S. government's official web portal to all federal, state and local government web resources and services.